Time;durP1;ratioP1;P1;durP2;ratioP2;P2;SDS_P1;SDS_P2;PMS_P1;PMS_P2;Temp;Humidity;BMP_temperature;BMP_pressure;BME280_temperature;BME280_humidity;BME280_pressure;Samples;Min_cycle;Max_cycle;Signal;HPM_P1;HPM_P2
2023/06/26 00:00:13;;;;;;;5.25;4.50;;;24.90;63.90;;;;;;5012290;28;20034;-75
2023/06/26 00:02:39;;;;;;;4.63;4.10;;;24.90;63.90;;;;;;5013405;28;20030;-75
2023/06/26 00:05:06;;;;;;;5.25;4.63;;;24.90;64.20;;;;;;5013168;28;20026;-76
2023/06/26 00:07:34;;;;;;;5.45;4.55;;;24.90;64.90;;;;;;5013485;28;20030;-76
2023/06/26 00:10:02;;;;;;;6.28;4.20;;;25.00;64.50;;;;;;5013486;28;20081;-76
2023/06/26 00:12:28;;;;;;;5.22;4.70;;;25.00;64.50;;;;;;5013454;28;20026;-75
2023/06/26 00:14:54;;;;;;;5.60;4.60;;;25.00;64.40;;;;;;5013626;28;20110;-75
2023/06/26 00:17:20;;;;;;;6.15;4.30;;;25.00;64.40;;;;;;5015849;28;20453;-76
2023/06/26 00:19:46;;;;;;;6.32;5.72;;;25.00;64.70;;;;;;5016765;28;20026;-76
2023/06/26 00:22:12;;;;;;;6.50;5.80;;;25.00;65.40;;;;;;5016826;28;20097;-76
2023/06/26 00:24:37;;;;;;;6.85;5.85;;;25.00;65.50;;;;;;5016277;28;20022;-76
2023/06/26 00:27:03;;;;;;;6.45;5.20;;;25.00;65.40;;;;;;5016675;28;20036;-76
2023/06/26 00:29:29;;;;;;;5.97;4.88;;;24.90;65.60;;;;;;5016883;28;20464;-75
2023/06/26 00:31:54;;;;;;;6.10;5.50;;;25.00;65.70;;;;;;5016638;28;20061;-75
2023/06/26 00:34:20;;;;;;;6.30;5.50;;;24.90;65.90;;;;;;5016462;28;20116;-75
2023/06/26 00:36:46;;;;;;;6.05;5.25;;;25.00;66.00;;;;;;5016923;28;20038;-76
2023/06/26 00:39:11;;;;;;;6.32;5.05;;;25.00;65.90;;;;;;5016788;28;20057;-75
2023/06/26 00:41:37;;;;;;;5.95;5.35;;;24.90;66.00;;;;;;5016574;28;20022;-76
2023/06/26 00:44:07;;;;;;;6.60;5.20;;;24.90;66.10;;;;;;5015109;28;20129;-76
2023/06/26 00:46:34;;;;;;;6.63;5.60;;;24.80;66.10;;;;;;5016256;28;20403;-75
2023/06/26 00:49:03;;;;;;;6.25;5.57;;;24.80;66.50;;;;;;5015133;28;20384;-76
2023/06/26 00:51:31;;;;;;;6.00;5.00;;;24.70;66.70;;;;;;5016462;28;20029;-76
2023/06/26 00:53:57;;;;;;;6.28;5.68;;;24.70;66.80;;;;;;5016776;28;20018;-75
2023/06/26 00:56:23;;;;;;;6.55;5.78;;;24.70;66.90;;;;;;5016488;28;20091;-76
2023/06/26 00:58:49;;;;;;;5.65;5.00;;;24.70;66.80;;;;;;5016313;28;20041;-75
2023/06/26 01:01:17;;;;;;;6.05;5.38;;;24.60;66.70;;;;;;5016253;28;20026;-76
2023/06/26 01:03:51;;;;;;;6.03;5.22;;;24.60;66.90;;;;;;5015886;28;20120;-75
2023/06/26 01:06:18;;;;;;;5.85;5.20;;;24.50;67.20;;;;;;5014856;28;20041;-74
2023/06/26 01:08:45;;;;;;;6.90;5.60;;;24.40;67.20;;;;;;5015910;28;20460;-75
2023/06/26 01:11:11;;;;;;;6.63;5.35;;;24.40;67.60;;;;;;5014653;28;20037;-75
2023/06/26 01:13:38;;;;;;;5.97;5.38;;;24.40;67.40;;;;;;5016038;28;20026;-75
2023/06/26 01:16:05;;;;;;;6.80;6.10;;;24.50;67.70;;;;;;5015638;28;20112;-75
2023/06/26 01:18:32;;;;;;;6.65;5.40;;;24.50;67.50;;;;;;5014379;28;20030;-75
2023/06/26 01:21:01;;;;;;;6.28;5.50;;;24.50;67.70;;;;;;5015934;28;20026;-75
2023/06/26 01:24:04;;;;;;;7.13;5.72;;;24.40;67.70;;;;;;5015635;28;20034;-75
2023/06/26 01:26:35;;;;;;;6.07;5.35;;;24.40;67.90;;;;;;5006366;28;20049;-75
2023/06/26 01:29:02;;;;;;;5.93;5.00;;;24.50;67.50;;;;;;5015388;28;20022;-75
2023/06/26 01:31:30;;;;;;;5.55;4.90;;;24.40;67.10;;;;;;5015916;28;20061;-75
2023/06/26 01:33:58;;;;;;;5.40;4.70;;;24.40;67.20;;;;;;5014768;28;20052;-75
2023/06/26 01:36:25;;;;;;;5.70;4.75;;;24.30;67.20;;;;;;5015699;28;20142;-75
2023/06/26 01:38:51;;;;;;;5.47;4.93;;;24.30;67.20;;;;;;5014093;28;20030;-75
2023/06/26 01:41:17;;;;;;;5.90;4.75;;;24.20;67.50;;;;;;5015367;28;20033;-75
2023/06/26 01:44:22;;;;;;;5.45;4.55;;;24.30;67.40;;;;;;5015387;28;20486;-75
2023/06/26 01:47:00;;;;;;;;;;;24.30;67.60;;;;;;5015711;28;20104;-75
2023/06/26 01:49:54;;;;;;;4.97;4.47;;;24.30;67.50;;;;;;5015212;28;19928;-75
2023/06/26 01:52:39;;;;;;;5.13;4.50;;;24.40;67.20;;;;;;5015339;28;20081;-75
2023/06/26 01:55:04;;;;;;;;;;;24.40;66.90;;;;;;5015768;28;20034;-75
2023/06/26 01:57:31;;;;;;;4.63;4.18;;;24.40;66.80;;;;;;5013766;28;19927;-75
2023/06/26 01:59:58;;;;;;;4.32;3.90;;;24.40;66.20;;;;;;5014954;28;20145;-76
2023/06/26 02:02:24;;;;;;;4.90;4.40;;;24.40;66.20;;;;;;5015088;28;20030;-75
2023/06/26 02:04:50;;;;;;;4.70;4.20;;;24.40;66.40;;;;;;5015215;28;20037;-74
2023/06/26 02:07:16;;;;;;;5.55;4.63;;;24.30;66.30;;;;;;5014863;28;20041;-74
2023/06/26 02:09:42;;;;;;;6.63;4.65;;;24.30;66.20;;;;;;5014730;28;20032;-74
2023/06/26 02:12:07;;;;;;;5.53;4.32;;;24.30;66.10;;;;;;5014956;28;20061;-74
2023/06/26 02:14:33;;;;;;;4.75;4.07;;;24.30;66.10;;;;;;5014657;28;20075;-74
2023/06/26 02:17:00;;;;;;;4.90;4.28;;;24.30;66.00;;;;;;5014655;28;20108;-74
2023/06/26 02:19:27;;;;;;;7.10;4.90;;;24.20;66.00;;;;;;5013629;28;20125;-75
2023/06/26 02:21:53;;;;;;;4.35;3.88;;;24.20;66.00;;;;;;5013685;28;20025;-74
2023/06/26 02:24:19;;;;;;;5.15;4.30;;;24.20;66.00;;;;;;5014567;28;20026;-74
2023/06/26 02:26:45;;;;;;;5.28;4.40;;;24.20;66.00;;;;;;5014360;28;20061;-74
2023/06/26 02:29:11;;;;;;;4.72;4.25;;;24.20;65.90;;;;;;5014714;28;20025;-75
2023/06/26 02:31:37;;;;;;;5.20;3.95;;;24.20;65.80;;;;;;5014625;28;20037;-74
2023/06/26 02:34:03;;;;;;;4.82;4.05;;;24.10;65.90;;;;;;5013539;28;20030;-75
2023/06/26 02:36:29;;;;;;;4.60;4.20;;;24.10;65.90;;;;;;4997283;28;20432;-75
2023/06/26 02:38:55;;;;;;;7.20;4.40;;;24.10;66.00;;;;;;5012523;28;20104;-78
2023/06/26 02:41:21;;;;;;;4.90;4.40;;;24.10;66.30;;;;;;5013491;28;20465;-78
2023/06/26 02:43:46;;;;;;;4.72;4.10;;;24.00;66.10;;;;;;5014651;28;20057;-79
2023/06/26 02:46:12;;;;;;;5.28;4.28;;;24.00;66.10;;;;;;5013970;28;20046;-79
2023/06/26 02:48:37;;;;;;;4.53;4.00;;;23.90;66.80;;;;;;5014620;28;20025;-78
2023/06/26 02:51:03;;;;;;;7.22;4.70;;;23.80;66.40;;;;;;5014524;28;20072;-79
2023/06/26 02:53:29;;;;;;;5.22;4.28;;;23.80;66.60;;;;;;5014956;28;20034;-79
2023/06/26 02:55:54;;;;;;;4.97;4.35;;;23.60;66.70;;;;;;5013514;28;20034;-79
2023/06/26 02:58:20;;;;;;;5.05;4.30;;;23.60;67.00;;;;;;5013794;28;20036;-79
2023/06/26 03:00:46;;;;;;;4.38;3.97;;;23.50;67.10;;;;;;5014292;28;20018;-79
2023/06/26 03:03:12;;;;;;;4.07;3.58;;;23.50;67.30;;;;;;5010004;28;20022;-79
2023/06/26 03:05:38;;;;;;;4.80;3.60;;;23.50;67.40;;;;;;5013655;28;20029;-79
2023/06/26 03:08:04;;;;;;;5.22;4.25;;;23.40;67.40;;;;;;5013795;28;20499;-79
2023/06/26 03:10:30;;;;;;;4.95;4.32;;;23.40;67.50;;;;;;5012221;28;20503;-79
2023/06/26 03:12:56;;;;;;;7.13;4.78;;;23.40;67.60;;;;;;5013964;28;20026;-79
2023/06/26 03:15:21;;;;;;;5.20;4.70;;;23.30;67.80;;;;;;5013894;28;20384;-79
2023/06/26 03:17:47;;;;;;;5.68;5.07;;;23.30;68.00;;;;;;5014413;28;20061;-79
2023/06/26 03:20:13;;;;;;;5.25;4.45;;;23.20;68.10;;;;;;4994040;28;20042;-79
2023/06/26 03:22:38;;;;;;;5.80;5.05;;;23.20;68.20;;;;;;5014306;28;20033;-79
2023/06/26 03:25:04;;;;;;;5.75;4.80;;;23.20;68.30;;;;;;5014317;28;20041;-79
2023/06/26 03:27:30;;;;;;;5.55;4.70;;;23.10;68.30;;;;;;5014180;28;20041;-79
2023/06/26 03:29:56;;;;;;;5.55;4.95;;;23.10;68.40;;;;;;5014175;28;20030;-74
2023/06/26 03:32:21;;;;;;;5.32;4.80;;;23.00;68.70;;;;;;5012981;28;20030;-79
2023/06/26 03:34:47;;;;;;;5.38;4.88;;;23.00;68.60;;;;;;5014243;28;20029;-78
2023/06/26 03:37:13;;;;;;;6.45;5.80;;;23.00;68.70;;;;;;5009761;28;20048;-76
2023/06/26 03:39:38;;;;;;;5.60;5.10;;;23.00;68.80;;;;;;5010227;28;20030;-77
2023/06/26 03:42:04;;;;;;;6.10;5.50;;;23.00;68.90;;;;;;5012078;28;20026;-77
2023/06/26 03:44:30;;;;;;;6.07;5.47;;;23.00;68.90;;;;;;5012423;28;20096;-75
2023/06/26 03:46:55;;;;;;;6.03;5.43;;;23.00;69.00;;;;;;5012226;28;20037;-76
2023/06/26 03:49:21;;;;;;;5.93;5.32;;;23.00;69.10;;;;;;5011766;28;20075;-77
2023/06/26 03:51:47;;;;;;;6.50;5.28;;;23.00;69.10;;;;;;5013945;28;20109;-76
2023/06/26 03:54:13;;;;;;;6.68;5.60;;;23.00;69.10;;;;;;5016094;28;20041;-77
2023/06/26 03:56:38;;;;;;;6.38;5.30;;;23.00;69.10;;;;;;5015867;28;20156;-77
2023/06/26 03:59:04;;;;;;;5.93;5.32;;;23.10;69.10;;;;;;5016194;28;20086;-77
2023/06/26 04:01:29;;;;;;;6.03;5.43;;;23.20;69.00;;;;;;5015840;28;20030;-76
2023/06/26 04:03:55;;;;;;;6.68;5.72;;;23.20;68.80;;;;;;5016466;28;20057;-78
2023/06/26 04:06:21;;;;;;;6.82;6.10;;;23.20;68.80;;;;;;5016237;28;20145;-76
2023/06/26 04:08:47;;;;;;;5.97;5.30;;;23.20;68.90;;;;;;5015989;28;20522;-76
2023/06/26 04:11:13;;;;;;;6.68;5.55;;;23.20;68.90;;;;;;5016031;28;20033;-77
2023/06/26 04:13:39;;;;;;;5.90;5.30;;;23.20;69.00;;;;;;5015671;28;20030;-79
2023/06/26 04:16:06;;;;;;;6.40;5.38;;;23.20;69.00;;;;;;5016078;28;20038;-75
2023/06/26 04:18:31;;;;;;;6.63;5.93;;;23.20;68.90;;;;;;5015309;28;20026;-77
2023/06/26 04:21:11;;;;;;;6.38;5.32;;;23.30;69.50;;;;;;5008791;28;20022;-75
2023/06/26 04:23:38;;;;;;;6.50;5.90;;;23.30;68.80;;;;;;5028646;28;20057;-76
2023/06/26 04:26:05;;;;;;;5.95;5.28;;;23.30;68.80;;;;;;5015316;28;20052;-75
2023/06/26 04:28:32;;;;;;;6.50;5.75;;;23.20;68.70;;;;;;5015633;28;20024;-77
2023/06/26 04:30:58;;;;;;;6.60;5.75;;;23.20;68.80;;;;;;5008559;28;20451;-77
2023/06/26 04:33:25;;;;;;;5.82;5.28;;;23.10;68.80;;;;;;5013980;28;20033;-77
2023/06/26 04:35:51;;;;;;;6.65;5.70;;;23.20;68.90;;;;;;5015520;28;20552;-77
2023/06/26 04:38:17;;;;;;;5.25;4.75;;;23.30;68.80;;;;;;5015053;28;20026;-77
2023/06/26 04:40:42;;;;;;;6.60;5.60;;;23.20;68.70;;;;;;5015134;28;20464;-78
2023/06/26 04:43:08;;;;;;;6.28;5.68;;;23.20;68.70;;;;;;5015096;28;20404;-77
2023/06/26 04:45:34;;;;;;;6.05;5.30;;;23.30;68.70;;;;;;5013958;28;20037;-76
2023/06/26 04:48:02;;;;;;;5.85;5.28;;;23.20;69.10;;;;;;5014580;28;20494;-74
2023/06/26 04:50:28;;;;;;;5.43;4.93;;;23.20;68.50;;;;;;5015066;28;20116;-74
2023/06/26 04:52:55;;;;;;;5.43;4.93;;;23.20;68.40;;;;;;5015523;28;20028;-75
2023/06/26 04:55:21;;;;;;;5.05;4.55;;;23.30;68.30;;;;;;5015654;28;20022;-74
2023/06/26 04:57:47;;;;;;;5.80;4.90;;;23.30;68.30;;;;;;5013931;28;20038;-75
2023/06/26 05:00:13;;;;;;;6.13;5.07;;;23.30;68.10;;;;;;5014666;28;20022;-74
2023/06/26 05:02:39;;;;;;;5.15;4.65;;;23.30;68.00;;;;;;5012658;28;20089;-74
2023/06/26 05:05:05;;;;;;;5.68;5.13;;;23.40;68.00;;;;;;5013670;28;20461;-75
2023/06/26 05:07:30;;;;;;;5.13;4.63;;;23.40;67.60;;;;;;5014771;28;20041;-74
2023/06/26 05:09:56;;;;;;;4.90;4.40;;;23.40;67.30;;;;;;5014935;28;20029;-74
2023/06/26 05:12:22;;;;;;;4.85;4.30;;;23.30;66.80;;;;;;5014599;28;20030;-75
2023/06/26 05:14:47;;;;;;;4.95;4.20;;;23.30;66.50;;;;;;5014875;28;20037;-75
2023/06/26 05:17:14;;;;;;;4.82;4.32;;;23.20;66.40;;;;;;5015080;28;20037;-78
2023/06/26 05:19:40;;;;;;;4.40;4.00;;;23.10;66.30;;;;;;5013431;28;20033;-79
2023/06/26 05:22:07;;;;;;;5.20;4.28;;;23.10;66.40;;;;;;5013330;28;20539;-74
2023/06/26 05:24:37;;;;;;;4.50;4.10;;;23.00;66.40;;;;;;5013847;28;20109;-77
2023/06/26 05:27:03;;;;;;;4.93;4.38;;;23.00;66.60;;;;;;5014179;28;20057;-76
2023/06/26 05:29:32;;;;;;;5.30;4.32;;;22.90;66.70;;;;;;5013931;28;20032;-80
2023/06/26 05:31:58;;;;;;;5.53;4.63;;;22.90;66.80;;;;;;5014418;28;20124;-80
2023/06/26 05:34:25;;;;;;;6.20;4.68;;;22.90;66.90;;;;;;5014056;28;20460;-79
2023/06/26 05:36:51;;;;;;;6.40;4.50;;;23.00;66.80;;;;;;5014478;28;20468;-79
2023/06/26 05:39:18;;;;;;;4.88;4.38;;;23.10;66.90;;;;;;5014265;28;20029;-78
2023/06/26 05:41:47;;;;;;;5.60;4.38;;;23.20;66.60;;;;;;5014624;28;20025;-79
2023/06/26 05:44:12;;;;;;;5.63;5.03;;;23.40;66.20;;;;;;5013657;28;20060;-78
2023/06/26 05:46:38;;;;;;;4.88;4.38;;;23.50;65.60;;;;;;5015215;28;20046;-79
2023/06/26 05:49:04;;;;;;;4.68;4.28;;;23.60;65.60;;;;;;5015165;28;20395;-79
2023/06/26 05:51:29;;;;;;;5.13;4.50;;;23.70;65.50;;;;;;5015609;28;20026;-79
2023/06/26 05:53:56;;;;;;;4.43;4.03;;;23.80;65.30;;;;;;5014247;28;20036;-79
2023/06/26 05:56:21;;;;;;;4.70;4.20;;;23.90;65.30;;;;;;5015103;28;20056;-79
2023/06/26 05:58:47;;;;;;;6.60;4.10;;;24.00;65.30;;;;;;5014104;28;20030;-79
2023/06/26 06:01:13;;;;;;;4.70;4.18;;;24.20;65.20;;;;;;5014017;28;20479;-79
2023/06/26 06:03:39;;;;;;;4.93;4.38;;;24.30;65.00;;;;;;5015161;28;20113;-79
2023/06/26 06:06:07;;;;;;;4.57;4.18;;;24.40;64.70;;;;;;5015331;28;20522;-79
2023/06/26 06:08:33;;;;;;;5.07;4.40;;;24.40;64.20;;;;;;5015607;28;20030;-77
2023/06/26 06:11:00;;;;;;;4.40;4.00;;;24.40;64.00;;;;;;5014896;28;20040;-77
2023/06/26 06:13:27;;;;;;;4.35;3.92;;;24.40;63.90;;;;;;5014510;28;20076;-78
2023/06/26 06:15:53;;;;;;;4.22;3.83;;;24.50;63.90;;;;;;5014733;28;20030;-78
2023/06/26 06:18:19;;;;;;;4.60;3.90;;;24.50;63.80;;;;;;5013633;28;20029;-78
2023/06/26 06:20:44;;;;;;;4.13;3.40;;;24.50;63.70;;;;;;5015104;28;20026;-80
2023/06/26 06:23:10;;;;;;;4.20;3.60;;;24.50;63.70;;;;;;5014934;28;20377;-79
2023/06/26 06:25:36;;;;;;;4.60;3.47;;;24.60;63.70;;;;;;5013420;28;20038;-77
2023/06/26 06:28:04;;;;;;;5.82;3.88;;;24.60;63.60;;;;;;5014539;28;20022;-77
2023/06/26 06:30:29;;;;;;;3.90;3.50;;;24.70;63.50;;;;;;5014352;28;20030;-79
2023/06/26 06:32:55;;;;;;;3.10;2.80;;;24.70;63.30;;;;;;5014726;28;20034;-79
2023/06/26 06:35:21;;;;;;;3.63;3.33;;;24.70;63.20;;;;;;5013602;28;20022;-77
2023/06/26 06:37:46;;;;;;;3.50;3.10;;;24.70;62.90;;;;;;5014549;28;20028;-78
2023/06/26 06:40:13;;;;;;;3.65;3.10;;;24.70;62.90;;;;;;5014389;28;20457;-78
2023/06/26 06:42:38;;;;;;;3.10;2.80;;;24.70;63.30;;;;;;5014463;28;20096;-78
2023/06/26 06:45:07;;;;;;;3.45;2.70;;;24.60;62.60;;;;;;5014312;28;20058;-79
2023/06/26 06:47:34;;;;;;;3.00;2.70;;;24.60;62.50;;;;;;5013030;28;20121;-78
2023/06/26 06:50:07;;;;;;;3.70;2.78;;;24.60;62.50;;;;;;5014482;28;20036;-80
2023/06/26 06:52:39;;;;;;;3.72;3.33;;;24.60;62.30;;;;;;5014463;28;20048;-79
2023/06/26 06:55:08;;;;;;;3.20;2.90;;;24.60;62.20;;;;;;5013027;28;20034;-78
2023/06/26 06:57:37;;;;;;;3.15;2.85;;;24.70;62.90;;;;;;5012701;28;20029;-78
2023/06/26 07:00:10;;;;;;;3.53;3.20;;;24.80;62.20;;;;;;5013318;28;20054;-78
2023/06/26 07:02:39;;;;;;;3.30;3.00;;;24.90;61.90;;;;;;5014247;28;20530;-78
2023/06/26 07:05:06;;;;;;;3.10;2.80;;;24.90;61.40;;;;;;5014087;28;20083;-79
2023/06/26 07:07:33;;;;;;;3.60;3.13;;;25.00;61.60;;;;;;5014145;28;20034;-78
2023/06/26 07:10:04;;;;;;;3.53;3.22;;;25.10;61.70;;;;;;5013978;28;20022;-79
2023/06/26 07:12:29;;;;;;;3.65;3.30;;;25.10;61.30;;;;;;5013683;28;20034;-79
2023/06/26 07:14:56;;;;;;;3.80;3.22;;;25.10;61.00;;;;;;5014282;28;20030;-79
2023/06/26 07:17:22;;;;;;;4.93;3.95;;;25.00;61.00;;;;;;5014068;28;20026;-79
2023/06/26 07:19:48;;;;;;;4.90;3.70;;;25.00;60.90;;;;;;5014065;28;20083;-79
2023/06/26 07:22:14;;;;;;;4.32;3.58;;;24.90;61.10;;;;;;5013929;28;20052;-80
2023/06/26 07:24:39;;;;;;;3.90;3.50;;;24.90;60.70;;;;;;5013845;28;20049;-80
2023/06/26 07:27:05;;;;;;;4.10;3.70;;;24.80;60.50;;;;;;5016856;28;20037;-80
2023/06/26 07:29:31;;;;;;;3.85;3.45;;;24.80;60.50;;;;;;5017296;28;20030;-79
2023/06/26 07:31:56;;;;;;;4.03;3.60;;;24.80;60.60;;;;;;5018029;28;20030;-77
2023/06/26 07:34:22;;;;;;;3.85;3.45;;;24.80;60.20;;;;;;5016476;28;20112;-78
2023/06/26 07:36:48;;;;;;;3.97;3.33;;;24.80;60.00;;;;;;5017722;28;20041;-78
2023/06/26 07:39:13;;;;;;;3.70;2.97;;;24.70;59.60;;;;;;5017852;28;20030;-77
2023/06/26 07:41:39;;;;;;;3.63;3.30;;;24.70;59.60;;;;;;5017365;28;20034;-77
2023/06/26 07:44:04;;;;;;;3.50;3.00;;;24.70;59.70;;;;;;5016220;28;20062;-78
2023/06/26 07:46:30;;;;;;;3.40;3.10;;;24.70;59.30;;;;;;5017595;28;20041;-77
2023/06/26 07:48:56;;;;;;;3.42;2.92;;;24.60;59.00;;;;;;5017484;28;20045;-78
2023/06/26 07:51:21;;;;;;;3.10;2.80;;;24.50;59.00;;;;;;5017611;28;20029;-79
2023/06/26 07:53:47;;;;;;;3.65;3.00;;;24.60;58.90;;;;;;5017358;28;20099;-78
2023/06/26 07:56:13;;;;;;;4.22;3.25;;;24.70;58.80;;;;;;5016076;28;20034;-79
2023/06/26 07:58:38;;;;;;;3.30;2.83;;;24.80;58.60;;;;;;5017520;28;20037;-76
2023/06/26 08:01:04;;;;;;;4.07;3.30;;;24.80;58.50;;;;;;5017544;28;20045;-76
2023/06/26 08:03:30;;;;;;;3.85;3.20;;;24.70;58.00;;;;;;5015951;28;20437;-74
2023/06/26 08:05:55;;;;;;;3.60;3.25;;;24.70;57.50;;;;;;5017013;28;20353;-74
2023/06/26 08:08:21;;;;;;;3.58;2.88;;;24.70;57.80;;;;;;5017065;28;20032;-74
2023/06/26 08:10:46;;;;;;;3.38;3.08;;;24.70;57.70;;;;;;5017017;28;20108;-74
2023/06/26 08:13:12;;;;;;;3.92;3.20;;;24.80;57.70;;;;;;5017262;28;20109;-74
2023/06/26 08:15:39;;;;;;;3.80;3.28;;;24.90;57.70;;;;;;5016913;28;20057;-74
2023/06/26 08:18:04;;;;;;;3.80;3.20;;;25.00;57.40;;;;;;5016752;28;20388;-74
2023/06/26 08:20:30;;;;;;;3.60;3.30;;;25.00;57.20;;;;;;5016482;28;20038;-74
2023/06/26 08:22:56;;;;;;;4.00;3.60;;;25.00;57.10;;;;;;5016808;28;20073;-74
2023/06/26 08:25:21;;;;;;;3.60;3.30;;;25.10;56.10;;;;;;5016844;28;20022;-73
2023/06/26 08:27:48;;;;;;;4.03;3.60;;;25.00;56.20;;;;;;5014376;28;20026;-74
2023/06/26 08:30:13;;;;;;;4.47;3.70;;;25.00;56.50;;;;;;5015559;28;20388;-75
2023/06/26 08:32:39;;;;;;;5.72;3.60;;;25.00;56.20;;;;;;5016487;28;20030;-74
2023/06/26 08:35:07;;;;;;;4.30;3.90;;;25.10;56.20;;;;;;5016607;28;20030;-73
2023/06/26 08:37:32;;;;;;;4.40;4.00;;;25.20;56.00;;;;;;5016480;28;20038;-74
2023/06/26 08:40:00;;;;;;;4.13;3.83;;;25.20;55.80;;;;;;5016245;28;20095;-73
2023/06/26 08:42:25;;;;;;;4.47;4.07;;;25.30;55.80;;;;;;5016402;28;20018;-75
2023/06/26 08:44:51;;;;;;;4.60;4.20;;;25.30;55.70;;;;;;5016867;28;20058;-73
2023/06/26 08:47:19;;;;;;;4.88;4.20;;;25.40;55.60;;;;;;5031492;28;20057;-73
2023/06/26 08:50:13;;;;;;;4.00;3.60;;;25.40;55.60;;;;;;5016270;28;20032;-73
2023/06/26 08:53:00;;;;;;;6.75;4.32;;;25.50;55.20;;;;;;5014849;28;20038;-74
2023/06/26 08:55:28;;;;;;;4.47;4.07;;;25.50;54.30;;;;;;5016285;28;20511;-74
2023/06/26 08:57:54;;;;;;;4.70;4.20;;;25.40;54.90;;;;;;5015042;28;20044;-74
2023/06/26 09:00:20;;;;;;;4.65;4.25;;;25.40;55.20;;;;;;5014984;28;20034;-74
2023/06/26 09:02:46;;;;;;;3.97;3.60;;;25.40;55.50;;;;;;5016453;28;20033;-73
2023/06/26 09:05:12;;;;;;;4.93;4.43;;;25.50;55.60;;;;;;5015994;28;20350;-73
2023/06/26 09:07:38;;;;;;;4.78;4.38;;;25.50;55.50;;;;;;4998735;28;20037;-76
2023/06/26 09:10:04;;;;;;;4.70;4.20;;;25.50;55.20;;;;;;5015917;28;20054;-76
2023/06/26 09:12:30;;;;;;;4.40;4.00;;;25.50;55.10;;;;;;5014677;28;20436;-76
2023/06/26 09:14:56;;;;;;;4.72;4.28;;;25.50;55.10;;;;;;5015747;28;20026;-75
2023/06/26 09:17:30;;;;;;;4.57;4.18;;;25.50;55.20;;;;;;5030754;28;20034;-75
2023/06/26 09:19:55;;;;;;;4.50;3.90;;;25.60;55.40;;;;;;5014841;28;20504;-76
2023/06/26 09:22:22;;;;;;;4.53;4.03;;;25.60;55.30;;;;;;5015267;28;20033;-75
2023/06/26 09:24:48;;;;;;;4.35;3.92;;;25.60;55.20;;;;;;5014403;28;20464;-76
2023/06/26 09:27:14;;;;;;;5.15;3.88;;;25.60;55.10;;;;;;5015361;28;20045;-76
2023/06/26 09:29:39;;;;;;;4.47;4.07;;;25.60;55.20;;;;;;5015408;28;20383;-76
2023/06/26 09:32:08;;;;;;;4.00;3.60;;;25.70;55.10;;;;;;5014016;28;20467;-76
2023/06/26 09:34:33;;;;;;;4.13;3.72;;;25.80;55.20;;;;;;5014091;28;20026;-76
2023/06/26 09:37:02;;;;;;;4.60;3.92;;;25.90;55.20;;;;;;5015470;28;20080;-76
2023/06/26 09:39:31;;;;;;;4.25;3.85;;;26.00;55.30;;;;;;5015480;28;20049;-76
2023/06/26 09:41:57;;;;;;;4.90;4.07;;;26.00;55.10;;;;;;5013903;28;20041;-76
2023/06/26 09:44:23;;;;;;;5.88;4.28;;;26.00;55.20;;;;;;5014903;28;20076;-77
2023/06/26 09:46:49;;;;;;;4.57;4.18;;;26.00;54.90;;;;;;5015160;28;20453;-76
2023/06/26 09:49:15;;;;;;;4.60;4.20;;;26.00;54.40;;;;;;5014734;28;20448;-76
2023/06/26 09:51:42;;;;;;;4.32;3.90;;;25.90;54.50;;;;;;5015169;28;20037;-76
2023/06/26 09:54:09;;;;;;;4.18;3.78;;;25.80;54.70;;;;;;5014048;28;20113;-76
2023/06/26 09:56:35;;;;;;;4.30;3.90;;;25.80;55.00;;;;;;5013902;28;20034;-76
2023/06/26 09:59:03;;;;;;;4.70;4.30;;;25.80;55.30;;;;;;5015007;28;20049;-76
2023/06/26 10:01:30;;;;;;;4.10;3.70;;;25.70;55.60;;;;;;5015043;28;20496;-76
2023/06/26 10:03:59;;;;;;;4.57;4.15;;;25.80;55.80;;;;;;5013731;28;20113;-76
2023/06/26 10:06:31;;;;;;;4.30;3.85;;;25.80;55.70;;;;;;5014965;28;20112;-75
2023/06/26 10:08:59;;;;;;;3.75;3.38;;;25.70;55.50;;;;;;5013521;28;20171;-76
2023/06/26 10:11:30;;;;;;;3.72;3.33;;;25.80;55.50;;;;;;5014936;28;20034;-75
2023/06/26 10:13:57;;;;;;;4.20;3.80;;;25.80;55.30;;;;;;5015034;28;20460;-75
2023/06/26 10:16:26;;;;;;;4.13;3.70;;;25.80;55.60;;;;;;5013442;28;20040;-74
2023/06/26 10:18:56;;;;;;;3.92;3.53;;;25.80;55.30;;;;;;5014714;28;20024;-74
2023/06/26 10:21:23;;;;;;;3.70;3.40;;;25.80;55.30;;;;;;5014709;28;20021;-75
2023/06/26 10:23:51;;;;;;;3.70;3.40;;;25.80;55.40;;;;;;5014396;28;20479;-74
2023/06/26 10:26:20;;;;;;;3.88;3.47;;;25.90;55.50;;;;;;5014301;28;20038;-75
2023/06/26 10:28:51;;;;;;;4.57;3.20;;;25.90;55.50;;;;;;5014824;28;20077;-75
2023/06/26 10:31:21;;;;;;;4.10;3.70;;;25.90;55.40;;;;;;5014402;28;20026;-79
2023/06/26 10:33:50;;;;;;;4.10;3.70;;;25.80;55.30;;;;;;5014502;28;20471;-75
2023/06/26 10:36:18;;;;;;;4.20;3.78;;;25.70;55.40;;;;;;5014244;28;20079;-75
2023/06/26 10:38:51;;;;;;;3.78;3.38;;;25.70;55.20;;;;;;5013124;28;20022;-76
2023/06/26 10:41:21;;;;;;;3.50;3.20;;;25.70;55.30;;;;;;5014461;28;20104;-76
2023/06/26 10:43:49;;;;;;;5.63;3.47;;;25.70;55.00;;;;;;5012787;28;20049;-75
2023/06/26 10:46:15;;;;;;;3.78;3.35;;;25.70;55.10;;;;;;5029591;28;20069;-74
2023/06/26 10:49:00;;;;;;;4.70;3.30;;;25.70;54.90;;;;;;5014140;28;20488;-75
2023/06/26 10:51:27;;;;;;;3.67;3.38;;;25.60;55.00;;;;;;5012872;28;20022;-74
2023/06/26 10:53:57;;;;;;;4.22;3.70;;;25.50;55.10;;;;;;5012845;28;20026;-75
2023/06/26 10:56:46;;;;;;;4.03;3.63;;;25.40;55.30;;;;;;5012582;28;20026;-77
2023/06/26 10:59:25;;;;;;;4.07;3.67;;;25.30;55.60;;;;;;5012539;28;20026;-75
2023/06/26 11:01:58;;;;;;;3.80;3.25;;;25.20;55.90;;;;;;5013234;28;20030;-75
2023/06/26 11:04:40;;;;;;;4.57;3.30;;;25.00;56.20;;;;;;5013979;28;20026;-75
2023/06/26 11:07:26;;;;;;;3.50;3.20;;;24.90;56.10;;;;;;5013769;28;20468;-75
2023/06/26 11:10:05;;;;;;;3.78;3.47;;;24.80;56.20;;;;;;5013448;28;20084;-76
2023/06/26 11:12:44;;;;;;;3.80;3.40;;;24.80;56.40;;;;;;5014335;28;20376;-76
2023/06/26 11:15:18;;;;;;;4.22;3.60;;;24.80;56.60;;;;;;5013921;28;20518;-75
2023/06/26 11:17:44;;;;;;;3.70;3.40;;;24.70;56.60;;;;;;5014102;28;20034;-75
2023/06/26 11:20:12;;;;;;;3.33;3.05;;;24.80;56.80;;;;;;5013859;28;20049;-75
2023/06/26 11:22:39;;;;;;;3.38;3.08;;;24.80;56.80;;;;;;5012521;28;20026;-75
2023/06/26 11:25:07;;;;;;;3.50;3.00;;;24.80;56.70;;;;;;5013253;28;20030;-77
2023/06/26 11:27:38;;;;;;;3.22;2.92;;;24.90;56.60;;;;;;5013809;28;20072;-76
2023/06/26 11:30:05;;;;;;;4.03;3.25;;;25.00;56.70;;;;;;5013822;28;20101;-75
2023/06/26 11:32:34;;;;;;;3.47;3.17;;;25.00;56.60;;;;;;5012563;28;20395;-76
2023/06/26 11:35:00;;;;;;;3.00;2.67;;;25.00;56.60;;;;;;5012274;28;20113;-76
2023/06/26 11:37:27;;;;;;;4.10;3.10;;;25.00;56.70;;;;;;5013547;28;20512;-76
2023/06/26 11:39:52;;;;;;;3.60;3.30;;;24.90;56.60;;;;;;5014027;28;20439;-76
2023/06/26 11:42:23;;;;;;;4.40;3.90;;;24.80;56.70;;;;;;5013827;28;20026;-76
2023/06/26 11:44:49;;;;;;;5.15;4.07;;;24.70;57.00;;;;;;5013434;28;20574;-75
2023/06/26 11:47:19;;;;;;;4.05;3.65;;;24.60;57.30;;;;;;5013330;28;20074;-76
2023/06/26 11:49:47;;;;;;;3.78;3.47;;;24.60;57.50;;;;;;5014109;28;20026;-76
2023/06/26 11:52:13;;;;;;;4.05;3.47;;;24.50;57.60;;;;;;5012326;28;20026;-76
2023/06/26 11:54:39;;;;;;;4.45;4.05;;;24.50;57.60;;;;;;5013618;28;20075;-75
2023/06/26 11:57:05;;;;;;;4.32;3.92;;;24.50;57.60;;;;;;5012323;28;20474;-76
2023/06/26 11:59:36;;;;;;;4.13;3.72;;;24.40;57.60;;;;;;5013556;28;20026;-76
2023/06/26 12:02:06;;;;;;;3.95;3.55;;;24.40;57.80;;;;;;5013430;28;20036;-76
2023/06/26 12:04:32;;;;;;;4.10;3.70;;;24.30;57.90;;;;;;5013458;28;20091;-76
2023/06/26 12:06:58;;;;;;;4.10;3.78;;;24.30;58.00;;;;;;5012432;28;20435;-76
2023/06/26 12:09:25;;;;;;;3.60;3.30;;;24.30;58.00;;;;;;5013498;28;20036;-75
2023/06/26 12:11:55;;;;;;;3.90;3.60;;;24.30;58.10;;;;;;5013610;28;20443;-74
2023/06/26 12:14:22;;;;;;;3.55;3.20;;;24.40;58.00;;;;;;5015519;28;20026;-75
2023/06/26 12:16:48;;;;;;;3.67;3.38;;;24.40;58.00;;;;;;5017866;28;20066;-75
2023/06/26 12:19:14;;;;;;;3.00;2.80;;;24.30;58.00;;;;;;5017164;28;20530;-75
2023/06/26 12:21:46;;;;;;;3.20;2.90;;;24.20;58.20;;;;;;5015618;28;20112;-75
2023/06/26 12:24:16;;;;;;;3.10;2.80;;;24.30;58.40;;;;;;5015736;28;20539;-76
2023/06/26 12:26:48;;;;;;;4.68;2.78;;;24.30;58.30;;;;;;5015592;28;20049;-75
2023/06/26 12:29:20;;;;;;;2.70;2.50;;;24.20;58.30;;;;;;5016577;28;20406;-74
2023/06/26 12:31:49;;;;;;;2.40;2.20;;;24.20;58.30;;;;;;5016916;28;20052;-76
2023/06/26 12:34:18;;;;;;;2.03;1.92;;;24.20;58.40;;;;;;5016515;28;20118;-75
2023/06/26 12:36:49;;;;;;;2.15;1.95;;;24.30;58.40;;;;;;5016619;28;20101;-74
2023/06/26 12:39:20;;;;;;;1.80;1.70;;;24.40;58.20;;;;;;5016352;28;20077;-75
2023/06/26 12:41:51;;;;;;;1.70;1.60;;;24.40;58.20;;;;;;5015193;28;20048;-76
2023/06/26 12:44:28;;;;;;;1.40;1.30;;;24.40;58.30;;;;;;5016687;28;20057;-76
2023/06/26 12:46:56;;;;;;;1.60;1.40;;;24.30;58.40;;;;;;5014999;28;20045;-76
2023/06/26 12:49:34;;;;;;;1.20;1.10;;;24.20;58.50;;;;;;5015392;28;20022;-76